Time;durP1;ratioP1;P1;durP2;ratioP2;P2;SDS_P1;SDS_P2;PMS_P1;PMS_P2;Temp;Humidity;BMP_temperature;BMP_pressure;BME280_temperature;BME280_humidity;BME280_pressure;Samples;Min_cycle;Max_cycle;Signal;HPM_P1;HPM_P2
2022/11/21 00:01:55;;;;;;;2.97;2.20;;;6.10;99.90;;;;;;5033669;28;20208;-87
2022/11/21 00:04:20;;;;;;;3.57;2.13;;;6.10;99.90;;;;;;5027626;28;20189;-88
2022/11/21 00:06:46;;;;;;;3.57;2.13;;;6.10;99.90;;;;;;5025883;28;20212;-87
2022/11/21 00:09:12;;;;;;;5.80;2.30;;;6.10;99.90;;;;;;5024814;28;20551;-88
2022/11/21 00:11:37;;;;;;;3.43;2.00;;;6.20;99.90;;;;;;5025067;28;20189;-87
2022/11/21 00:14:03;;;;;;;2.00;1.90;;;6.20;99.90;;;;;;5026479;28;20253;-87
2022/11/21 00:16:29;;;;;;;2.43;1.70;;;6.20;99.90;;;;;;5027182;28;20220;-87
2022/11/21 00:18:54;;;;;;;2.63;1.93;;;6.30;99.90;;;;;;5027234;28;20198;-87
2022/11/21 00:21:20;;;;;;;2.37;1.90;;;6.20;99.90;;;;;;5026967;28;20232;-90
2022/11/21 00:23:46;;;;;;;5.23;2.23;;;6.30;99.90;;;;;;5024916;28;20317;-86
2022/11/21 00:26:14;;;;;;;2.67;2.10;;;6.30;99.90;;;;;;5016886;28;20209;-87
2022/11/21 00:28:40;;;;;;;2.30;2.10;;;6.40;99.90;;;;;;5024845;28;20200;-87
2022/11/21 00:31:06;;;;;;;2.77;2.00;;;6.40;99.90;;;;;;5024754;28;20206;-87
2022/11/21 00:33:35;;;;;;;2.23;2.00;;;6.50;99.90;;;;;;5028919;28;20217;-88
2022/11/21 00:36:08;;;;;;;2.80;1.97;;;6.50;99.90;;;;;;5038098;28;20193;-88
2022/11/21 00:38:34;;;;;;;2.97;2.03;;;6.50;99.90;;;;;;5023163;28;20198;-87
2022/11/21 00:40:59;;;;;;;2.30;2.10;;;6.50;99.90;;;;;;5026236;28;20206;-87
2022/11/21 00:43:25;;;;;;;2.90;2.07;;;6.60;99.90;;;;;;5021541;28;20301;-87
2022/11/21 00:45:51;;;;;;;4.10;2.13;;;6.60;99.90;;;;;;5025037;28;20305;-87
2022/11/21 00:48:16;;;;;;;4.77;2.07;;;6.50;99.90;;;;;;5025797;28;20193;-89
2022/11/21 00:50:42;;;;;;;3.27;2.20;;;6.40;99.90;;;;;;5026159;28;20272;-88
2022/11/21 00:53:08;;;;;;;3.27;2.40;;;6.40;99.90;;;;;;5024212;28;20185;-86
2022/11/21 00:55:36;;;;;;;2.80;2.07;;;6.40;99.90;;;;;;5025226;28;20189;-86
2022/11/21 00:58:02;;;;;;;2.20;2.03;;;6.40;99.90;;;;;;5025470;28;20169;-89
2022/11/21 01:00:27;;;;;;;2.50;2.10;;;6.50;99.90;;;;;;5024728;28;20202;-88
2022/11/21 01:02:53;;;;;;;1.93;1.73;;;6.50;99.90;;;;;;5025634;28;20211;-87
2022/11/21 01:05:19;;;;;;;3.10;1.90;;;6.50;99.90;;;;;;5025255;28;20229;-87
2022/11/21 01:07:46;;;;;;;3.20;2.00;;;6.40;99.90;;;;;;5031228;28;20192;-87
2022/11/21 01:10:12;;;;;;;2.87;2.00;;;6.40;99.90;;;;;;5035726;28;20509;-88
2022/11/21 01:12:38;;;;;;;3.40;1.70;;;6.40;99.90;;;;;;5033365;28;20201;-89
2022/11/21 01:15:04;;;;;;;2.63;1.83;;;6.40;99.90;;;;;;5027873;28;20206;-89
2022/11/21 01:17:32;;;;;;;2.80;1.77;;;6.40;99.90;;;;;;5020537;28;20416;-87
2022/11/21 01:19:58;;;;;;;3.47;2.00;;;6.40;99.90;;;;;;5025152;28;20222;-88
2022/11/21 01:22:23;;;;;;;3.20;2.00;;;6.40;99.90;;;;;;5025009;28;20553;-87
2022/11/21 01:24:49;;;;;;;5.23;2.70;;;6.40;99.90;;;;;;5025755;28;20195;-86
2022/11/21 01:27:15;;;;;;;4.10;2.27;;;6.40;99.90;;;;;;5026180;28;20759;-88
2022/11/21 01:29:40;;;;;;;3.37;2.60;;;6.30;99.90;;;;;;5023634;28;20217;-88
2022/11/21 01:32:07;;;;;;;3.83;2.00;;;6.40;99.90;;;;;;5023485;28;20181;-87
2022/11/21 01:34:32;;;;;;;2.73;2.53;;;6.40;99.90;;;;;;5022979;28;20236;-87
2022/11/21 01:37:00;;;;;;;4.33;2.30;;;6.40;99.90;;;;;;5024573;28;20185;-86
2022/11/21 01:39:25;;;;;;;3.30;2.23;;;6.40;99.90;;;;;;5024588;28;20285;-87
2022/11/21 01:41:51;;;;;;;4.87;2.30;;;6.30;99.90;;;;;;5024728;28;20189;-88
2022/11/21 01:44:20;;;;;;;4.30;2.30;;;6.30;99.90;;;;;;5024482;28;20181;-87
2022/11/21 01:46:47;;;;;;;3.37;1.90;;;6.30;99.90;;;;;;5015950;28;20178;-87
2022/11/21 01:49:15;;;;;;;3.17;2.20;;;6.30;99.90;;;;;;5025639;28;20173;-88
2022/11/21 01:51:57;;;;;;;4.57;2.70;;;6.20;99.90;;;;;;5025848;28;20181;-87
2022/11/21 01:54:51;;;;;;;2.20;1.97;;;6.20;99.90;;;;;;5026579;28;20245;-87
2022/11/21 01:57:41;;;;;;;4.07;1.83;;;6.30;99.90;;;;;;5026444;28;20843;-87
2022/11/21 02:00:20;;;;;;;4.77;2.27;;;6.30;99.90;;;;;;5013881;28;20261;-83
2022/11/21 02:02:52;;;;;;;3.33;2.00;;;6.20;99.90;;;;;;5010959;28;20238;-86
2022/11/21 02:05:22;;;;;;;2.50;2.10;;;6.20;99.90;;;;;;5015232;28;20178;-85
2022/11/21 02:07:51;;;;;;;2.23;1.90;;;6.30;99.90;;;;;;5026598;28;20256;-87
2022/11/21 02:10:17;;;;;;;2.60;1.87;;;6.30;99.90;;;;;;5026782;28;20225;-85
2022/11/21 02:12:52;;;;;;;2.87;2.33;;;6.30;99.90;;;;;;5026129;28;20488;-86
2022/11/21 02:15:23;;;;;;;2.87;2.00;;;6.40;99.90;;;;;;5026087;28;20216;-86
2022/11/21 02:17:49;;;;;;;3.20;1.70;;;6.40;99.90;;;;;;5026731;28;20211;-86
2022/11/21 02:20:24;;;;;;;2.13;1.60;;;6.40;99.90;;;;;;5029586;28;20272;-88
2022/11/21 02:22:55;;;;;;;1.73;1.60;;;6.40;99.90;;;;;;5029480;28;20181;-86
2022/11/21 02:25:26;;;;;;;2.93;1.50;;;6.40;99.90;;;;;;5030207;28;20193;-87
2022/11/21 02:27:57;;;;;;;1.50;1.40;;;6.40;99.90;;;;;;5028640;28;20252;-88
2022/11/21 02:30:23;;;;;;;2.43;1.43;;;6.30;99.90;;;;;;5027440;28;20213;-86
2022/11/21 02:32:49;;;;;;;3.07;1.50;;;6.40;99.90;;;;;;5029877;28;20198;-86
2022/11/21 02:35:17;;;;;;;1.80;1.60;;;6.40;99.90;;;;;;5031986;28;20687;-87
2022/11/21 02:37:46;;;;;;;1.60;1.40;;;6.50;99.90;;;;;;5029938;28;20182;-85
2022/11/21 02:40:21;;;;;;;1.83;1.40;;;6.40;99.90;;;;;;5027876;28;20217;-88
2022/11/21 02:43:14;;;;;;;2.57;1.67;;;6.40;99.90;;;;;;5029359;28;20184;-86
2022/11/21 02:45:42;;;;;;;3.50;1.70;;;6.40;99.90;;;;;;5028161;28;20177;-86
2022/11/21 02:48:08;;;;;;;1.83;1.63;;;6.40;99.90;;;;;;5027767;28;20406;-85
2022/11/21 02:50:36;;;;;;;2.10;1.57;;;6.50;99.90;;;;;;5028108;28;20292;-87
2022/11/21 02:53:04;;;;;;;1.83;1.73;;;6.50;99.90;;;;;;5023632;28;20178;-88
2022/11/21 02:55:30;;;;;;;2.47;1.80;;;6.40;99.90;;;;;;5024835;28;20186;-87
2022/11/21 02:57:56;;;;;;;2.40;1.50;;;6.50;99.90;;;;;;5027088;28;20794;-87
2022/11/21 03:00:23;;;;;;;1.90;1.70;;;6.40;99.90;;;;;;5027757;28;20213;-86
2022/11/21 03:02:49;;;;;;;2.10;1.73;;;6.40;99.90;;;;;;5028863;28;20190;-86
2022/11/21 03:05:17;;;;;;;1.70;1.60;;;6.40;99.90;;;;;;5028340;28;20245;-87
2022/11/21 03:07:44;;;;;;;3.00;1.90;;;6.50;99.90;;;;;;5029022;28;20181;-86
2022/11/21 03:10:10;;;;;;;2.50;1.60;;;6.50;99.90;;;;;;5027926;28;20205;-89
2022/11/21 03:12:37;;;;;;;2.00;1.40;;;6.40;99.90;;;;;;5027139;28;20190;-89
2022/11/21 03:15:04;;;;;;;2.23;1.80;;;6.50;99.90;;;;;;5027851;28;20188;-85
2022/11/21 03:17:29;;;;;;;1.90;1.53;;;6.50;99.90;;;;;;5026906;28;20699;-88
2022/11/21 03:19:55;;;;;;;2.07;1.80;;;6.50;99.90;;;;;;5026166;28;20213;-89
2022/11/21 03:22:21;;;;;;;2.30;1.90;;;6.50;99.90;;;;;;5026391;28;20229;-85
2022/11/21 03:24:46;;;;;;;1.87;1.70;;;6.50;99.90;;;;;;5025397;28;20194;-88
2022/11/21 03:27:12;;;;;;;2.93;1.70;;;6.60;99.90;;;;;;5024507;28;20207;-89
2022/11/21 03:29:37;;;;;;;2.20;1.83;;;6.60;99.90;;;;;;5024735;28;20210;-87
2022/11/21 03:32:03;;;;;;;2.53;2.10;;;6.60;99.90;;;;;;5025121;28;20191;-86
2022/11/21 03:34:29;;;;;;;3.23;1.93;;;6.60;99.90;;;;;;5030243;28;20200;-87
2022/11/21 03:36:54;;;;;;;2.20;1.77;;;6.50;99.90;;;;;;5025068;28;20189;-86
2022/11/21 03:39:21;;;;;;;2.80;1.97;;;6.50;99.90;;;;;;5025702;28;20275;-86
2022/11/21 03:41:46;;;;;;;1.80;1.60;;;6.60;99.90;;;;;;5026479;28;20177;-87
2022/11/21 03:44:12;;;;;;;2.33;1.90;;;6.70;99.90;;;;;;5025806;28;20821;-87
2022/11/21 03:46:41;;;;;;;5.53;2.00;;;6.60;99.90;;;;;;5025929;28;20185;-88
2022/11/21 03:49:07;;;;;;;2.93;1.90;;;6.60;99.90;;;;;;5025509;28;20201;-89
2022/11/21 03:51:34;;;;;;;2.70;2.20;;;6.50;99.90;;;;;;5025374;28;20181;-88
2022/11/21 03:53:59;;;;;;;2.63;1.90;;;6.60;99.90;;;;;;5018460;28;20198;-88
2022/11/21 03:56:26;;;;;;;1.80;1.70;;;6.60;99.90;;;;;;5024039;28;20535;-88
2022/11/21 03:58:52;;;;;;;2.33;2.13;;;6.60;99.90;;;;;;5024972;28;20265;-89
2022/11/21 04:01:18;;;;;;;1.97;1.87;;;6.50;99.90;;;;;;5022738;28;20537;-85
2022/11/21 04:03:45;;;;;;;2.53;1.80;;;6.50;99.90;;;;;;5024898;28;20205;-85
2022/11/21 04:06:13;;;;;;;4.13;2.10;;;6.50;99.90;;;;;;5026571;28;20201;-86
2022/11/21 04:08:39;;;;;;;4.03;2.20;;;6.60;99.90;;;;;;5015853;28;20188;-87
2022/11/21 04:11:05;;;;;;;2.53;1.80;;;6.50;99.90;;;;;;5025544;28;20213;-87
2022/11/21 04:13:31;;;;;;;3.47;2.00;;;6.40;99.90;;;;;;5025128;28;20185;-88
2022/11/21 04:15:57;;;;;;;3.97;2.00;;;6.40;99.90;;;;;;5026293;28;20529;-86
2022/11/21 04:18:22;;;;;;;2.77;2.10;;;6.60;99.90;;;;;;5025705;28;20194;-85
2022/11/21 04:20:48;;;;;;;2.53;1.77;;;6.50;99.90;;;;;;5025033;28;20209;-85
2022/11/21 04:23:14;;;;;;;3.53;2.10;;;6.50;99.90;;;;;;5024659;28;20186;-86
2022/11/21 04:25:40;;;;;;;3.47;2.10;;;6.40;99.90;;;;;;5024508;28;20291;-87
2022/11/21 04:28:06;;;;;;;2.33;1.90;;;6.40;99.90;;;;;;5024022;28;20273;-88
2022/11/21 04:30:33;;;;;;;3.30;2.17;;;6.40;99.90;;;;;;5023720;28;20236;-86
2022/11/21 04:32:58;;;;;;;2.33;2.07;;;6.40;99.90;;;;;;5023321;28;20671;-85
2022/11/21 04:35:25;;;;;;;2.43;1.90;;;6.40;99.90;;;;;;5022832;28;20199;-86
2022/11/21 04:37:51;;;;;;;2.13;1.70;;;6.50;99.90;;;;;;5025036;28;20277;-86
2022/11/21 04:40:17;;;;;;;4.93;2.20;;;6.50;99.90;;;;;;5025569;28;20209;-87
2022/11/21 04:42:44;;;;;;;5.13;2.10;;;6.40;99.90;;;;;;5027298;28;20290;-86
2022/11/21 04:45:11;;;;;;;2.97;2.13;;;6.40;99.90;;;;;;5025263;28;20182;-88
2022/11/21 04:47:38;;;;;;;1.87;1.70;;;6.40;99.90;;;;;;5026641;28;20178;-86
2022/11/21 04:50:05;;;;;;;2.57;1.93;;;6.50;99.90;;;;;;5025067;28;20232;-86
2022/11/21 04:52:31;;;;;;;2.13;1.80;;;6.40;99.90;;;;;;5027688;28;20169;-86
2022/11/21 04:54:56;;;;;;;3.17;2.03;;;6.50;99.90;;;;;;5026459;28;20249;-86
2022/11/21 04:57:22;;;;;;;4.47;1.87;;;6.50;99.90;;;;;;5027144;28;20245;-86
2022/11/21 04:59:48;;;;;;;5.33;2.10;;;6.50;99.90;;;;;;5026602;28;20217;-88
2022/11/21 05:02:14;;;;;;;3.40;1.90;;;6.60;99.90;;;;;;5026359;28;20197;-85
2022/11/21 05:04:39;;;;;;;3.33;1.90;;;6.60;99.90;;;;;;5026711;28;20192;-87
2022/11/21 05:07:05;;;;;;;1.97;1.77;;;6.50;99.90;;;;;;5024156;28;20193;-86
2022/11/21 05:09:30;;;;;;;3.53;2.23;;;6.50;99.90;;;;;;5021712;28;20209;-85
2022/11/21 05:14:40;;;;;;;3.50;2.17;;;6.60;99.90;;;;;;5015087;28;20848;-86
2022/11/21 05:17:06;;;;;;;2.63;2.00;;;6.60;99.90;;;;;;5025109;28;20190;-86
2022/11/21 05:19:32;;;;;;;4.43;2.00;;;6.60;99.90;;;;;;5019001;28;20224;-85
2022/11/21 05:21:57;;;;;;;3.07;1.93;;;6.70;99.90;;;;;;5026650;28;20185;-87
2022/11/21 05:24:23;;;;;;;2.87;1.90;;;6.60;99.90;;;;;;5031311;28;20185;-85
2022/11/21 05:26:49;;;;;;;5.07;2.07;;;6.70;99.90;;;;;;5027368;28;20181;-87
2022/11/21 05:29:15;;;;;;;3.47;1.73;;;6.70;99.90;;;;;;5022774;28;20165;-85
2022/11/21 05:31:41;;;;;;;4.40;2.23;;;6.60;99.90;;;;;;5019036;28;20185;-84
2022/11/21 05:34:07;;;;;;;1.97;1.87;;;6.50;99.90;;;;;;5024631;28;20193;-86
2022/11/21 05:36:33;;;;;;;2.10;1.90;;;6.50;99.90;;;;;;5026825;28;20182;-86
2022/11/21 05:38:58;;;;;;;2.57;1.67;;;6.50;99.90;;;;;;5030488;28;20205;-85
2022/11/21 05:41:24;;;;;;;3.90;1.87;;;6.50;99.90;;;;;;5021964;28;20228;-86
2022/11/21 05:43:50;;;;;;;1.97;1.77;;;6.50;99.90;;;;;;5022899;28;20182;-86
2022/11/21 05:46:18;;;;;;;2.73;2.00;;;6.40;99.90;;;;;;5026910;28;20166;-88
2022/11/21 05:48:45;;;;;;;2.97;2.13;;;6.40;99.90;;;;;;5016726;28;20221;-89
2022/11/21 05:51:11;;;;;;;3.50;2.10;;;6.50;99.90;;;;;;5035783;28;20225;-87
2022/11/21 05:53:37;;;;;;;3.00;2.10;;;6.40;99.90;;;;;;5035006;28;20182;-84
2022/11/21 05:56:11;;;;;;;5.83;2.70;;;6.30;99.90;;;;;;5031549;28;20189;-85
2022/11/21 05:58:37;;;;;;;6.70;2.07;;;6.40;99.90;;;;;;5029393;28;20251;-86
2022/11/21 06:01:03;;;;;;;3.77;2.53;;;6.40;99.90;;;;;;5028336;28;20233;-87
2022/11/21 06:03:32;;;;;;;3.27;2.37;;;6.40;99.90;;;;;;5028465;28;20207;-86
2022/11/21 06:06:01;;;;;;;3.43;2.53;;;6.40;99.90;;;;;;5030192;28;20273;-88
2022/11/21 06:08:30;;;;;;;3.57;2.43;;;6.40;99.90;;;;;;5028524;28;20257;-89
2022/11/21 06:10:56;;;;;;;5.30;2.67;;;6.40;99.90;;;;;;5028048;28;20206;-84
2022/11/21 06:13:21;;;;;;;5.57;2.80;;;6.40;99.90;;;;;;5043458;28;20185;-88
2022/11/21 06:15:53;;;;;;;3.97;2.40;;;6.40;99.90;;;;;;5035363;28;20185;-89
2022/11/21 06:18:19;;;;;;;5.60;2.63;;;6.40;99.90;;;;;;5032372;28;20209;-86
2022/11/21 06:20:45;;;;;;;4.40;2.57;;;6.30;99.90;;;;;;5035019;28;20201;-86
2022/11/21 06:23:11;;;;;;;5.83;2.80;;;6.30;99.90;;;;;;5026175;28;20239;-87
2022/11/21 06:25:37;;;;;;;5.17;2.60;;;6.20;99.90;;;;;;5020542;28;20192;-85
2022/11/21 06:28:03;;;;;;;6.63;2.60;;;6.40;99.90;;;;;;5021778;28;20189;-86
2022/11/21 06:30:28;;;;;;;7.00;2.83;;;6.30;99.90;;;;;;5028081;28;20232;-88
2022/11/21 06:32:54;;;;;;;4.97;2.97;;;6.30;99.90;;;;;;5027996;28;20218;-85
2022/11/21 06:35:20;;;;;;;6.83;2.67;;;6.30;99.90;;;;;;5032057;28;20254;-88
2022/11/21 06:37:45;;;;;;;6.27;2.63;;;6.30;99.90;;;;;;5027992;28;20200;-88
2022/11/21 06:40:11;;;;;;;5.77;2.77;;;6.40;99.90;;;;;;5026509;28;20282;-87
2022/11/21 06:42:37;;;;;;;5.90;2.50;;;6.40;99.90;;;;;;5031169;28;20189;-86
2022/11/21 06:45:03;;;;;;;6.50;2.80;;;6.40;99.90;;;;;;5030160;28;20197;-87
2022/11/21 06:47:33;;;;;;;5.87;2.57;;;6.40;99.90;;;;;;5025006;28;20753;-87
2022/11/21 06:49:59;;;;;;;5.67;2.90;;;6.30;99.90;;;;;;5022648;28;20214;-88
2022/11/21 06:52:25;;;;;;;7.77;3.23;;;6.30;99.90;;;;;;5025441;28;20202;-87
2022/11/21 06:54:51;;;;;;;6.63;2.73;;;6.40;99.90;;;;;;5026321;28;20204;-86
2022/11/21 06:57:17;;;;;;;7.50;2.70;;;6.40;99.90;;;;;;5017515;28;20249;-87
2022/11/21 06:59:42;;;;;;;6.20;2.93;;;6.40;99.90;;;;;;5023612;28;20245;-86
2022/11/21 07:02:14;;;;;;;4.53;2.87;;;6.40;99.90;;;;;;5020844;28;20201;-89
2022/11/21 07:04:40;;;;;;;5.43;2.87;;;6.40;99.90;;;;;;5023515;28;20185;-87
2022/11/21 07:07:06;;;;;;;6.57;2.67;;;6.30;99.90;;;;;;5026838;28;20206;-88
2022/11/21 07:09:32;;;;;;;6.13;3.03;;;6.30;99.90;;;;;;5024828;28;20220;-86
2022/11/21 07:13:20;;;;;;;3.27;2.60;;;6.30;99.90;;;;;;5024479;28;20200;-88
2022/11/21 07:14:44;;;;;;;5.80;3.40;;;6.40;99.90;;;;;;5025083;28;20220;-88
2022/11/21 07:17:11;;;;;;;5.73;2.97;;;6.40;99.90;;;;;;5025770;28;20297;-87
2022/11/21 07:19:37;;;;;;;4.77;2.77;;;6.50;99.90;;;;;;5010042;28;20317;-87
2022/11/21 07:22:03;;;;;;;6.53;3.20;;;6.60;99.90;;;;;;5040972;28;20527;-87
2022/11/21 07:24:28;;;;;;;16.93;5.00;;;6.50;99.90;;;;;;5026284;28;20186;-87
2022/11/21 07:26:54;;;;;;;5.57;3.70;;;6.50;99.90;;;;;;5026406;28;20201;-87
2022/11/21 07:29:20;;;;;;;8.77;3.10;;;6.30;99.90;;;;;;5025261;28;20269;-84
2022/11/21 07:31:45;;;;;;;6.90;2.93;;;6.30;99.90;;;;;;5027918;28;20204;-85
2022/11/21 07:34:11;;;;;;;8.03;2.90;;;6.40;99.90;;;;;;5026840;28;20351;-88
2022/11/21 07:36:37;;;;;;;4.67;2.90;;;6.50;99.90;;;;;;5028967;28;20185;-86
2022/11/21 07:39:03;;;;;;;8.80;2.67;;;6.50;99.90;;;;;;5020694;28;20293;-85
2022/11/21 07:41:28;;;;;;;7.07;2.87;;;6.50;99.90;;;;;;5029913;28;20659;-85
2022/11/21 07:43:54;;;;;;;7.83;3.23;;;6.50;99.90;;;;;;5028883;28;20186;-85
2022/11/21 07:46:20;;;;;;;5.63;3.10;;;6.50;99.90;;;;;;5029753;28;20186;-86
2022/11/21 07:48:45;;;;;;;8.43;2.73;;;6.40;99.90;;;;;;5021492;28;20670;-86
2022/11/21 07:51:11;;;;;;;5.33;3.40;;;6.40;99.90;;;;;;5030996;28;20220;-84
2022/11/21 07:53:37;;;;;;;8.93;3.10;;;6.40;99.90;;;;;;5027960;28;20189;-85
2022/11/21 07:56:03;;;;;;;7.77;3.20;;;6.50;99.90;;;;;;5031155;28;20253;-85
2022/11/21 07:58:29;;;;;;;5.60;2.90;;;6.40;99.90;;;;;;5030592;28;20212;-85
2022/11/21 08:00:56;;;;;;;5.57;2.83;;;6.50;99.90;;;;;;5031170;28;20205;-87
2022/11/21 08:03:24;;;;;;;7.27;3.07;;;6.60;99.90;;;;;;5031600;28;20208;-87
2022/11/21 08:05:49;;;;;;;5.93;3.03;;;6.60;99.90;;;;;;5030446;28;20181;-86
2022/11/21 08:08:15;;;;;;;6.70;3.00;;;6.60;99.90;;;;;;5029750;28;20233;-87
2022/11/21 08:10:43;;;;;;;6.83;2.90;;;6.60;99.90;;;;;;5030972;28;20217;-86
2022/11/21 08:13:09;;;;;;;5.20;2.70;;;6.70;99.90;;;;;;5030872;28;20182;-85
2022/11/21 08:15:36;;;;;;;7.60;2.70;;;6.70;99.90;;;;;;5030518;28;20575;-85
2022/11/21 08:18:09;;;;;;;5.20;3.03;;;6.60;99.90;;;;;;5020755;28;20190;-86
2022/11/21 08:20:34;;;;;;;4.40;3.10;;;6.80;99.90;;;;;;5027602;28;20277;-85
2022/11/21 08:23:00;;;;;;;9.10;2.60;;;6.90;99.90;;;;;;5020512;28;20198;-84
2022/11/21 08:25:26;;;;;;;6.47;2.80;;;7.00;99.90;;;;;;5021888;28;20590;-88
2022/11/21 08:27:56;;;;;;;7.67;2.93;;;7.10;99.90;;;;;;5030426;28;20190;-85
2022/11/21 08:30:22;;;;;;;5.67;2.83;;;7.10;99.90;;;;;;5027906;28;20287;-86
2022/11/21 08:32:48;;;;;;;4.50;2.57;;;7.10;99.90;;;;;;5030579;28;20189;-85
2022/11/21 08:35:14;;;;;;;5.23;3.17;;;7.00;99.90;;;;;;5022617;28;20190;-86
2022/11/21 08:37:39;;;;;;;7.80;3.07;;;7.10;99.90;;;;;;5026771;28;20189;-86
2022/11/21 08:40:06;;;;;;;5.13;2.90;;;7.10;99.90;;;;;;5026496;28;20284;-85
2022/11/21 08:42:31;;;;;;;7.47;2.60;;;7.10;99.90;;;;;;5031481;28;20185;-87
2022/11/21 08:44:57;;;;;;;4.43;2.90;;;7.10;99.90;;;;;;5031231;28;20208;-85
2022/11/21 08:47:24;;;;;;;4.10;2.77;;;7.00;99.90;;;;;;5031683;28;20193;-86
2022/11/21 08:49:49;;;;;;;5.03;2.47;;;7.00;99.90;;;;;;5029889;28;20214;-86
2022/11/21 08:52:16;;;;;;;4.20;2.23;;;7.00;99.90;;;;;;5031456;28;20189;-85
2022/11/21 08:54:43;;;;;;;3.90;2.30;;;6.90;99.90;;;;;;5027936;28;20202;-85
2022/11/21 08:57:09;;;;;;;4.93;2.30;;;6.80;99.90;;;;;;5025729;28;20201;-84
2022/11/21 08:59:35;;;;;;;6.20;2.40;;;6.80;99.90;;;;;;5038990;28;20733;-86
2022/11/21 09:02:01;;;;;;;4.33;2.63;;;6.90;99.90;;;;;;5030087;28;20210;-86
2022/11/21 09:04:26;;;;;;;3.03;2.00;;;6.70;99.90;;;;;;5029204;28;20253;-86
2022/11/21 09:06:52;;;;;;;4.63;2.03;;;6.50;99.90;;;;;;5030159;28;20209;-86
2022/11/21 09:09:18;;;;;;;2.80;2.20;;;6.40;99.90;;;;;;5031208;28;20181;-86
2022/11/21 09:11:45;;;;;;;5.07;2.13;;;6.40;99.90;;;;;;5031379;28;20241;-89
2022/11/21 09:19:42;;;;;;;4.33;2.10;;;6.40;99.90;;;;;;5030352;28;20259;-87
2022/11/21 09:22:07;;;;;;;3.73;2.10;;;6.30;99.90;;;;;;5029881;28;20202;-86
2022/11/21 09:24:35;;;;;;;6.63;2.30;;;6.30;99.90;;;;;;5024643;28;20189;-87
2022/11/21 09:27:01;;;;;;;6.97;2.40;;;6.40;99.90;;;;;;5029688;28;20188;-87
2022/11/21 09:29:28;;;;;;;3.10;2.33;;;6.50;99.90;;;;;;5029256;28;20625;-88
2022/11/21 09:31:53;;;;;;;3.60;1.97;;;6.70;99.90;;;;;;5023622;28;20185;-85
2022/11/21 09:34:19;;;;;;;3.00;1.80;;;6.70;99.90;;;;;;5024176;28;20398;-86
2022/11/21 09:36:47;;;;;;;2.67;2.00;;;6.70;99.90;;;;;;5029226;28;20185;-87
2022/11/21 09:39:13;;;;;;;4.70;2.40;;;6.80;99.90;;;;;;5016682;28;20218;-85
2022/11/21 09:42:00;;;;;;;7.10;2.20;;;6.90;99.90;;;;;;5028926;28;20261;-88
2022/11/21 09:44:47;;;;;;;4.47;2.43;;;6.80;99.90;;;;;;5022869;28;20216;-86
2022/11/21 09:47:26;;;;;;;4.07;2.17;;;7.00;99.90;;;;;;5028869;28;20188;-86
2022/11/21 09:50:04;;;;;;;3.60;2.13;;;7.00;99.90;;;;;;5018650;28;20209;-88
2022/11/21 09:52:38;;;;;;;3.53;2.23;;;7.20;99.90;;;;;;5028387;28;20201;-86
2022/11/21 09:55:16;;;;;;;4.40;2.67;;;7.40;99.90;;;;;;5029956;28;20208;-85
2022/11/21 09:57:43;;;;;;;7.00;2.53;;;7.40;99.90;;;;;;5013484;28;20189;-86
2022/11/21 10:00:20;;;;;;;4.93;2.67;;;7.50;99.90;;;;;;5029392;28;20284;-89
2022/11/21 10:02:46;;;;;;;6.90;2.97;;;7.90;99.90;;;;;;5025296;28;20197;-85
2022/11/21 10:05:14;;;;;;;6.07;2.80;;;8.00;99.90;;;;;;5029584;28;20184;-88
2022/11/21 10:07:41;;;;;;;7.07;2.70;;;8.10;99.90;;;;;;5028666;28;20636;-86
2022/11/21 10:10:23;;;;;;;3.27;2.60;;;8.20;99.90;;;;;;5029704;28;20269;-86
2022/11/21 10:12:54;;;;;;;4.97;3.20;;;8.30;99.90;;;;;;5029692;28;20177;-89
2022/11/21 10:15:36;;;;;;;4.17;3.10;;;8.40;99.90;;;;;;5028948;28;20196;-86
2022/11/21 10:18:20;;;;;;;5.10;3.30;;;8.50;99.90;;;;;;5028982;28;20185;-86
2022/11/21 10:21:06;;;;;;;7.07;3.03;;;8.60;99.90;;;;;;5029187;28;20213;-87
2022/11/21 10:23:40;;;;;;;6.80;3.27;;;8.90;99.90;;;;;;5020142;28;20261;-86
2022/11/21 10:26:35;;;;;;;5.67;3.13;;;9.20;99.90;;;;;;5035187;28;20185;-89
2022/11/21 10:29:03;;;;;;;9.10;3.30;;;9.40;99.90;;;;;;5035434;28;20186;-88
2022/11/21 10:31:37;;;;;;;8.90;3.00;;;9.40;99.90;;;;;;5030883;28;20210;-85
2022/11/21 10:34:08;;;;;;;6.13;2.70;;;9.60;99.90;;;;;;5021870;28;20193;-86
2022/11/21 10:36:39;;;;;;;4.37;3.50;;;9.80;99.90;;;;;;5016241;28;20478;-86
2022/11/21 10:39:13;;;;;;;7.33;3.50;;;10.10;99.90;;;;;;5028474;28;20230;-86
2022/11/21 10:42:01;;;;;;;5.93;3.37;;;10.50;99.90;;;;;;5031317;28;20202;-86
2022/11/21 10:47:26;;;;;;;5.73;3.23;;;10.70;99.60;;;;;;5031329;28;20206;-86
2022/11/21 10:50:31;;;;;;;7.63;3.07;;;10.80;98.40;;;;;;5028450;28;20252;-86
2022/11/21 10:56:16;;;;;;;4.50;2.93;;;10.50;99.90;;;;;;5012951;28;20645;-86
2022/11/21 10:58:58;;;;;;;5.67;3.17;;;10.60;97.60;;;;;;5028243;28;20242;-85
2022/11/21 11:01:30;;;;;;;5.07;3.20;;;10.60;98.20;;;;;;5026819;28;20252;-87
2022/11/21 11:04:05;;;;;;;4.60;3.13;;;10.40;96.00;;;;;;5032075;28;20190;-86
2022/11/21 11:06:39;;;;;;;7.87;3.53;;;10.10;99.90;;;;;;5032472;28;20186;-86
2022/11/21 11:09:06;;;;;;;4.97;2.70;;;10.20;99.90;;;;;;5032230;28;20194;-86
2022/11/21 11:11:32;;;;;;;4.43;3.00;;;10.10;99.90;;;;;;5032916;28;20190;-87
2022/11/21 11:14:13;;;;;;;8.30;5.13;;;10.60;98.90;;;;;;5033168;28;20191;-85
2022/11/21 11:16:46;;;;;;;5.83;3.30;;;10.90;95.40;;;;;;5029110;28;20188;-87
2022/11/21 11:19:12;;;;;;;6.73;3.17;;;10.90;96.70;;;;;;5026703;28;20210;-88
2022/11/21 11:21:40;;;;;;;9.13;3.27;;;10.60;94.20;;;;;;5031784;28;20237;-86
2022/11/21 11:24:06;;;;;;;5.70;2.83;;;10.60;94.40;;;;;;5027112;28;20187;-85
2022/11/21 11:26:32;;;;;;;7.03;3.47;;;11.10;94.40;;;;;;5032150;28;20641;-87
2022/11/21 11:29:08;;;;;;;6.90;3.10;;;11.40;92.00;;;;;;5029155;28;20189;-87
2022/11/21 11:31:59;;;;;;;6.30;3.10;;;11.50;91.20;;;;;;5011461;28;20180;-85
2022/11/21 11:34:45;;;;;;;4.63;3.13;;;11.50;91.80;;;;;;5029479;28;20192;-87
2022/11/21 11:37:20;;;;;;;6.03;3.13;;;11.40;93.30;;;;;;5031835;28;20199;-85
2022/11/21 11:40:00;;;;;;;6.53;2.90;;;11.50;90.40;;;;;;5029525;28;20215;-86
2022/11/21 11:52:50;;;;;;;8.20;3.20;;;10.80;93.80;;;;;;4927463;29;20235;-87
2022/11/21 11:55:33;;;;;;;6.83;3.43;;;10.40;93.90;;;;;;5029511;28;20211;-89
2022/11/21 11:58:01;;;;;;;5.20;3.20;;;10.70;90.60;;;;;;5015263;28;20196;-88
2022/11/21 12:00:34;;;;;;;6.33;2.93;;;11.20;87.10;;;;;;5028185;28;20385;-87
2022/11/21 12:03:10;;;;;;;6.10;3.37;;;11.70;85.90;;;;;;5030224;28;20193;-87
2022/11/21 12:05:44;;;;;;;5.60;3.30;;;11.70;82.30;;;;;;5031341;28;20624;-90
2022/11/21 12:08:29;;;;;;;5.43;3.10;;;11.80;85.70;;;;;;5019225;28;20185;-87
2022/11/21 12:13:53;;;;;;;4.73;2.43;;;12.20;82.40;;;;;;5028264;28;20207;-86
2022/11/21 12:16:20;;;;;;;3.47;2.67;;;12.20;77.70;;;;;;5030408;28;20184;-87
2022/11/21 12:18:46;;;;;;;6.10;2.87;;;11.90;75.40;;;;;;5012867;28;20228;-87
2022/11/21 12:21:19;;;;;;;6.63;2.60;;;11.40;78.90;;;;;;5026781;28;20196;-87
2022/11/21 12:23:52;;;;;;;4.87;2.60;;;11.40;77.50;;;;;;5025545;28;20245;-87
2022/11/21 12:26:39;;;;;;;4.27;2.60;;;11.50;75.60;;;;;;5030454;28;20195;-86
2022/11/21 12:29:24;;;;;;;3.40;2.80;;;11.40;78.90;;;;;;5012370;28;20179;-86
2022/11/21 12:32:14;;;;;;;7.47;2.63;;;11.60;77.50;;;;;;5028590;28;20227;-88
2022/11/21 12:35:01;;;;;;;4.23;2.43;;;11.70;77.10;;;;;;5029958;28;20349;-87
2022/11/21 12:37:27;;;;;;;5.90;2.77;;;11.60;77.30;;;;;;5027381;28;20190;-87
2022/11/21 12:40:06;;;;;;;4.30;2.50;;;11.40;78.90;;;;;;5027895;28;20365;-89
2022/11/21 12:42:49;;;;;;;6.90;2.93;;;11.40;80.70;;;;;;5025962;28;20287;-86
2022/11/21 12:45:26;;;;;;;6.30;2.43;;;10.90;83.20;;;;;;5028396;28;20200;-89
2022/11/21 12:54:32;;;;;;;6.07;2.53;;;11.30;82.10;;;;;;5028638;28;20216;-87
2022/11/21 12:57:11;;;;;;;5.53;2.40;;;11.40;79.50;;;;;;5033938;28;20210;-86
2022/11/21 13:00:11;;;;;;;9.30;3.10;;;11.30;78.20;;;;;;5041674;28;20711;-87
2022/11/21 13:03:32;;;;;;;6.47;2.90;;;11.60;76.20;;;;;;5033687;28;20208;-88
2022/11/21 13:05:59;;;;;;;6.30;2.70;;;11.70;74.20;;;;;;4998097;28;20487;-86
2022/11/21 13:08:28;;;;;;;5.77;2.77;;;11.60;75.30;;;;;;5040337;28;20206;-86
2022/11/21 13:14:24;;;;;;;4.67;3.27;;;11.00;80.40;;;;;;5029790;28;20242;-87
2022/11/21 13:17:05;;;;;;;4.13;2.70;;;10.90;79.30;;;;;;5025366;28;20207;-87
2022/11/21 13:19:49;;;;;;;6.47;4.27;;;11.20;80.10;;;;;;5028224;28;20646;-87
2022/11/21 13:22:36;;;;;;;5.13;3.00;;;11.20;77.50;;;;;;5028725;28;20190;-91
2022/11/21 13:25:30;;;;;;;4.03;2.43;;;11.10;78.90;;;;;;5028171;28;20270;-89
2022/11/21 13:28:18;;;;;;;6.47;4.67;;;10.80;80.90;;;;;;5024142;28;20212;-89
2022/11/21 13:30:58;;;;;;;6.63;2.77;;;10.80;78.80;;;;;;5024262;28;20204;-87
2022/11/21 13:33:33;;;;;;;6.83;2.57;;;10.70;80.10;;;;;;5023018;28;20200;-85
2022/11/21 13:36:12;;;;;;;6.93;2.97;;;10.60;81.70;;;;;;5026556;28;20701;-87
2022/11/21 13:38:53;;;;;;;7.03;2.80;;;10.70;80.20;;;;;;5028386;28;20185;-87
2022/11/21 13:44:30;;;;;;;6.10;2.53;;;11.00;80.30;;;;;;5024251;28;20208;-88
2022/11/21 13:47:01;;;;;;;4.90;2.80;;;11.00;80.20;;;;;;5027208;28;20192;-88
2022/11/21 13:49:50;;;;;;;4.70;3.07;;;10.80;82.20;;;;;;5022574;28;20224;-89